Terminal Aerodrome Forecast
Issued by NWS

Home | Current Version | Previous Version | Graphics & Text | Print | Product List | Glossary On
Versions: 1 2 3 4 5 6 7 8 9 10 11 12 13 14 15 16 17 18 19
000
FTUS43 KICT 210520
TAFCNU
TAF
KCNU 210520Z 2106/2206 07008KT P6SM VCTS SCT050 OVC070CB
      TEMPO 2106/2110 5SM -TSRA OVC040CB
     FM211000 06009KT 6SM -TSRA OVC060CB
     FM211500 06014G20KT 5SM TSRA OVC035CB
     FM211800 07014G20KT 6SM TSRA OVC020CB
     FM212100 06014G22KT 6SM TSRA OVC015CB=

USA.gov is the U.S. government's official web portal to all federal, state and local government web resources and services.